默认 日期 大小 文件数 浏览量 最新下载 xml
swordfish磁力链接相关资源由用户搜索指令自动获取,结果来源于网络,本站不存储任何资料,亦不承担任何责任,请于24小时内删除,搜索到288个磁力,用时0ms。
    {"VIDEO_TS.BUP": 12288, "VIDEO_TS.IFO": 12288, "VIDEO_TS.VOB": 262144, "VTS_01_0.BUP": 20480, "VTS_01_0.IFO": 20480, "VTS_01_1.VOB": 434601984}
创建时间: 2020-09-27 14:10:46 大小:414.78 MB 文件数量:6 热度:3 最近下载:2025-01-05 06:57:06
    {"[TGx]Downloaded from torrentgalaxy.to .txt": 678, "Swordfish.2001.720p.BluRay.999MB.HQ.x265.10bit-GalaxyRG.mkv": 1040441972}
创建时间: 2020-10-12 00:33:00 大小:992.24 MB 文件数量:2 热度:3 最近下载:2025-01-06 03:48:02
    ... "Screens-Info": {"Info.txt": 4479, "Swordfish-720p MP4 AAC BRRip 2001 ... .06.04.png": 691145, "Swordfish-720p MP4 AAC BRRip 2001 ... .19.26.png": 795352, "Swordfish-720p MP4 AAC BRRip 2001 ... mp4_snapshot_01.08.16.png": 1024722, "Swordfish-720p MP4 AAC BRRip 2001 ...
创建时间: 2020-10-21 19:16:23 大小:1.88 GB 文件数量:28 热度:8 最近下载:2025-01-17 14:44:08
    {"...AT-TEAM.jpg": 37537, "...Read iNFO.txt": 2107, "... Masz zaproszenie.url": 111, "Kod dostępu - Swordfish (2001) [DVDRip XviD AC3][ENG][Napisy PL][AT-Team].avi": 1509099672}
创建时间: 2020-11-15 05:34:05 大小:1.41 GB 文件数量:4 热度:7 最近下载:2025-07-25 09:06:02
    ... The Pirate Bay.txt": 57, "Swordfish.2001.BRRip.XviD.B4ND1T69.avi ... ": 1296030460, "Swordfish.2001.BRRip.XviD.B4ND1T69.srt ...
创建时间: 2020-11-16 19:56:07 大小:1.21 GB 文件数量:7 热度:5 最近下载:2025-01-05 00:59:03
    {"Swordfish (2001) 1.png": 996913, "Swordfish (2001) 2.png": 1556815, "Swordfish (2001) 1080p-H264-AC 3 (DolbyDigital-5.1) & nickarad.mp4": 2342565035, "Swordfish (2001) 1080p-H264-AC 3 (DolbyDigital-5.1) & nickarad.srt": 67192}
创建时间: 2020-12-07 00:44:03 大小:2.18 GB 文件数量:4 热度:3 最近下载:2025-01-03 21:45:01
    {"VIDEO_TS": {"VIDEO_TS.BUP": 14336, "VIDEO_TS.IFO": 14336, "VIDEO_TS.VOB": 212992, "VTS_01_0.BUP": 26624, "VTS_01_0.IFO": 26624, "VTS_01_1.VOB": 754132992, "VTS_02_0.BUP": 83968, "VTS_02_0.IFO": 83968, "VTS_02_0.VOB": 4575232, "VTS_02_1.VOB": 1073715200, ...
创建时间: 2020-12-20 21:55:02 大小:7.83 GB 文件数量:19 热度:4 最近下载:2025-01-12 04:54:08
    ... Oakenfold - Speed.mp3": 5558567, "Soundtrack - Swordfish - back.jpg": 144818, "13 - ... Oakenfold - Password.mp3": 5979870, "Soundtrack - Swordfish - front.jpg": 223439, "04 - Paul ... ": 10922655, "01 - Paul Oakenfold - Swordfish (Intro).mp3": 3943572, "08 - Lemon ...
创建时间: 2021-01-03 17:35:09 大小:96.9 MB 文件数量:17 热度:3 最近下载:2025-02-17 18:57:03
    {"Swordfish.DVDRip-XviD.OPT!V!D-CD1.mkv": 734697140, "Swordfish.DVDRip-XviD.OPT!V!D-CD2.mkv": 734652558}
创建时间: 2021-01-18 01:28:35 大小:1.37 GB 文件数量:2 热度:3 最近下载:2025-01-24 16:25:06
    ... , "chd-Swordfish.avi": 4687790080, "chd-Swordfish.idx": 156346, "chd-Swordfish.rar": 3028562 ... , "chd-Swordfish.avi.par2": 4148, "chd-Swordfish ... 1.PAR2": 24964216, "chd-Swordfish.avi.vol10+1.PAR2": 24964216}
创建时间: 2021-01-21 04:35:52 大小:4.53 GB 文件数量:11 热度:4 最近下载:2025-01-25 07:57:09
    ... 影片库.txt": 311, "Swordfish.2001.UK.BluRay.1080p.VC ...
创建时间: 2021-03-08 17:50:20 大小:22.89 GB 文件数量:7 热度:85 最近下载:2025-10-11 09:25:03
    ... .png": 5807, "com.swordfish.lemuroid_114.apk": 11732308, "com.swordfish.lemuroid_114_meta.xml": 2180 ... , "com.swordfish.lemuroid.114_thumb.jpg ...
创建时间: 2021-03-15 19:15:43 大小:16.3 MB 文件数量:7 热度:2 最近下载:2025-02-07 23:01:56
    {"Leeme.txt": 94, "pctmix.com.URL": 209, "Descargar peliculas series y estrenos torrent grat.URL": 212, "Operacion Swordfish 4Kreescalado2160.pctreload1.com.mkv": 49927236749, "Descargar Gratis Peliculas y Series en Español - Pctfenix.URL": 211}
创建时间: 2021-04-30 20:16:49 大小:46.5 GB 文件数量:5 热度:12 最近下载:2025-05-29 12:34:02
    {"Swordfish 2001.m3u": 1008, "Swordfish 2001.nfo": 74995, "Swordfish 2001.sfv": 579, "Swordfish 2001 ... - Teaser VO.mkv": 18428308, "Swordfish 2001 Bonus - Conversation VOSTFR.mkv ... ": 82625215, "Swordfish 2001 Bonus - HBO First Look ...
创建时间: 2021-04-30 21:47:05 大小:4.23 GB 文件数量:11 热度:5 最近下载:2025-02-03 14:03:01
    {"Swordfish (2001) 1080p LAT ChileBT.jpg": 133723, "Swordfish (2001) 1080p LAT ChileBT.mkv": 3373018639}
创建时间: 2021-05-01 12:58:26 大小:3.14 GB 文件数量:2 热度:4 最近下载:2025-01-21 00:22:05
    {"Swordfish.(2001)[2160p {4K} x264 BG-ENG AUDIO].mkv": 46476416793}
创建时间: 2021-05-05 13:39:00 大小:43.28 GB 文件数量:1 热度:22 最近下载:2025-05-20 05:58:02
    {"Sample": {"Swordfish 2001.mp4": 61360117}, "Swordfish 2001.mp4": 2835081124, "Kingdom RG NFO Please Read.nfo": 11637}
创建时间: 2021-08-07 16:41:53 大小:2.7 GB 文件数量:3 热度:3 最近下载:2025-03-19 21:01:55
    {"Swordfish.2001.1080p.BluRay.AC3.x264.RoSubbed-CtrlHD.mkv": 7042865197, "Swordfish.2001.1080p.BluRay.AC3.x264.RoSubbed-CtrlHD.srt": 67192}
创建时间: 2021-08-20 06:09:15 大小:6.56 GB 文件数量:2 热度:7 最近下载:2025-07-28 01:27:01
    {"Swordfish.2001.1080p.BluRay.x265.10bit. ...
创建时间: 2021-08-29 21:36:49 大小:7.1 GB 文件数量:5 热度:79 最近下载:2025-10-06 20:19:03
    ... .mkv": 30686202, "HBO First Look; Swordfish.mkv": 173264858, "Effects In Focus ... Reel (Music Video).mkv": 70527913}, "Swordfish.2001.HDRip-AVC..mkv": 1512808008}
创建时间: 2021-08-30 05:39:42 大小:1.85 GB 文件数量:8 热度:4 最近下载:2025-01-07 19:18:04